Terminal Aerodrome Forecast
Issued by NWS Charleston, WV

Current Version | Previous Version | Graphics & Text | Print | Product List | Glossary On
Versions: 1 2 3 4 5 6 7 8 9 10 11 12 13 14 15 16 17 18 19 20 21 22
503
FTUS41 KRLX 241120
TAFPKB
TAF
KPKB 241120Z 2412/2512 08008KT 5SM -SHRA OVC080
     FM241300 09007KT P6SM -SHRA OVC040
     FM241600 09007KT 4SM -SHRA OVC045
     FM242100 08007KT P6SM -SHRA OVC060
     FM250800 36004KT P6SM OVC025
     FM251000 36004KT P6SM OVC015=

USA.gov is the U.S. government's official web portal to all federal, state and local government web resources and services.